sensor_id;sensor_type;location;lat;lon;timestamp;P1;durP1;ratioP1;P2;durP2;ratioP2
58242;SDS011;50118;53.232;8.252;2023-08-12T00:00:49;24.10;;;15.27;;
58242;SDS011;50118;53.232;8.252;2023-08-12T00:03:15;20.80;;;12.95;;
58242;SDS011;50118;53.232;8.252;2023-08-12T00:05:40;21.77;;;11.45;;
58242;SDS011;50118;53.232;8.252;2023-08-12T00:08:07;16.88;;;9.65;;
58242;SDS011;50118;53.232;8.252;2023-08-12T00:10:33;22.05;;;12.98;;
58242;SDS011;50118;53.232;8.252;2023-08-12T00:12:59;20.13;;;13.85;;
58242;SDS011;50118;53.232;8.252;2023-08-12T00:15:24;20.20;;;13.27;;
58242;SDS011;50118;53.232;8.252;2023-08-12T00:17:50;21.88;;;13.35;;
58242;SDS011;50118;53.232;8.252;2023-08-12T00:20:15;17.67;;;11.57;;
58242;SDS011;50118;53.232;8.252;2023-08-12T00:22:41;25.00;;;14.15;;
58242;SDS011;50118;53.232;8.252;2023-08-12T00:25:06;19.80;;;11.98;;
58242;SDS011;50118;53.232;8.252;2023-08-12T00:27:32;16.45;;;11.68;;
58242;SDS011;50118;53.232;8.252;2023-08-12T00:29:57;17.38;;;11.88;;
58242;SDS011;50118;53.232;8.252;2023-08-12T00:32:23;13.60;;;8.88;;
58242;SDS011;50118;53.232;8.252;2023-08-12T00:34:48;15.98;;;9.50;;
58242;SDS011;50118;53.232;8.252;2023-08-12T00:37:14;10.88;;;7.13;;
58242;SDS011;50118;53.232;8.252;2023-08-12T00:39:39;14.38;;;8.23;;
58242;SDS011;50118;53.232;8.252;2023-08-12T00:42:05;18.83;;;9.75;;
58242;SDS011;50118;53.232;8.252;2023-08-12T00:44:30;17.75;;;9.38;;
58242;SDS011;50118;53.232;8.252;2023-08-12T00:46:55;14.38;;;9.13;;
58242;SDS011;50118;53.232;8.252;2023-08-12T00:49:22;12.88;;;8.93;;
58242;SDS011;50118;53.232;8.252;2023-08-12T00:51:49;17.20;;;10.30;;
58242;SDS011;50118;53.232;8.252;2023-08-12T00:54:15;17.30;;;9.73;;
58242;SDS011;50118;53.232;8.252;2023-08-12T00:56:41;10.90;;;6.80;;
58242;SDS011;50118;53.232;8.252;2023-08-12T00:59:08;13.23;;;7.60;;
58242;SDS011;50118;53.232;8.252;2023-08-12T01:01:35;10.95;;;7.78;;
58242;SDS011;50118;53.232;8.252;2023-08-12T01:04:05;15.65;;;9.25;;
58242;SDS011;50118;53.232;8.252;2023-08-12T01:06:30;14.43;;;7.60;;
58242;SDS011;50118;53.232;8.252;2023-08-12T01:08:56;18.10;;;9.38;;
58242;SDS011;50118;53.232;8.252;2023-08-12T01:11:31;15.10;;;8.65;;
58242;SDS011;50118;53.232;8.252;2023-08-12T01:16:51;12.95;;;8.27;;
58242;SDS011;50118;53.232;8.252;2023-08-12T01:19:37;13.30;;;7.80;;
58242;SDS011;50118;53.232;8.252;2023-08-12T01:22:06;15.00;;;9.43;;
58242;SDS011;50118;53.232;8.252;2023-08-12T01:24:37;10.88;;;7.07;;
58242;SDS011;50118;53.232;8.252;2023-08-12T01:27:04;20.23;;;12.05;;
58242;SDS011;50118;53.232;8.252;2023-08-12T01:29:34;19.45;;;12.15;;
58242;SDS011;50118;53.232;8.252;2023-08-12T01:34:44;14.65;;;10.70;;
58242;SDS011;50118;53.232;8.252;2023-08-12T01:37:14;17.92;;;11.15;;
58242;SDS011;50118;53.232;8.252;2023-08-12T01:39:48;17.58;;;11.35;;
58242;SDS011;50118;53.232;8.252;2023-08-12T01:42:15;21.80;;;13.32;;
58242;SDS011;50118;53.232;8.252;2023-08-12T01:44:43;21.25;;;15.00;;
58242;SDS011;50118;53.232;8.252;2023-08-12T01:47:09;28.23;;;17.20;;
58242;SDS011;50118;53.232;8.252;2023-08-12T01:49:34;26.25;;;15.50;;
58242;SDS011;50118;53.232;8.252;2023-08-12T01:51:59;21.85;;;15.60;;
58242;SDS011;50118;53.232;8.252;2023-08-12T01:54:25;26.27;;;16.08;;
58242;SDS011;50118;53.232;8.252;2023-08-12T01:56:50;24.63;;;16.10;;
58242;SDS011;50118;53.232;8.252;2023-08-12T01:59:16;23.88;;;16.80;;
58242;SDS011;50118;53.232;8.252;2023-08-12T02:01:41;22.90;;;16.42;;
58242;SDS011;50118;53.232;8.252;2023-08-12T02:04:07;21.73;;;15.00;;
58242;SDS011;50118;53.232;8.252;2023-08-12T02:06:32;20.67;;;14.90;;
58242;SDS011;50118;53.232;8.252;2023-08-12T02:08:57;26.77;;;17.70;;
58242;SDS011;50118;53.232;8.252;2023-08-12T02:11:23;30.73;;;19.40;;
58242;SDS011;50118;53.232;8.252;2023-08-12T02:13:48;24.05;;;17.17;;
58242;SDS011;50118;53.232;8.252;2023-08-12T02:16:13;25.75;;;18.35;;
58242;SDS011;50118;53.232;8.252;2023-08-12T02:18:39;24.33;;;17.73;;
58242;SDS011;50118;53.232;8.252;2023-08-12T02:21:04;27.48;;;20.13;;
58242;SDS011;50118;53.232;8.252;2023-08-12T02:23:30;28.80;;;18.80;;
58242;SDS011;50118;53.232;8.252;2023-08-12T02:25:55;26.05;;;19.05;;
58242;SDS011;50118;53.232;8.252;2023-08-12T02:28:20;25.63;;;18.13;;
58242;SDS011;50118;53.232;8.252;2023-08-12T02:30:46;28.92;;;19.15;;
58242;SDS011;50118;53.232;8.252;2023-08-12T02:33:11;25.88;;;18.73;;
58242;SDS011;50118;53.232;8.252;2023-08-12T02:35:36;23.75;;;18.60;;
58242;SDS011;50118;53.232;8.252;2023-08-12T02:38:03;24.27;;;17.85;;
58242;SDS011;50118;53.232;8.252;2023-08-12T02:40:28;24.25;;;18.35;;
58242;SDS011;50118;53.232;8.252;2023-08-12T02:42:54;26.75;;;20.30;;
58242;SDS011;50118;53.232;8.252;2023-08-12T02:45:19;26.95;;;19.75;;
58242;SDS011;50118;53.232;8.252;2023-08-12T02:47:44;26.55;;;18.40;;
58242;SDS011;50118;53.232;8.252;2023-08-12T02:50:10;25.50;;;17.70;;
58242;SDS011;50118;53.232;8.252;2023-08-12T02:52:35;22.80;;;17.00;;
58242;SDS011;50118;53.232;8.252;2023-08-12T02:55:01;23.83;;;18.08;;
58242;SDS011;50118;53.232;8.252;2023-08-12T02:57:26;24.90;;;18.90;;
58242;SDS011;50118;53.232;8.252;2023-08-12T02:59:51;20.60;;;15.82;;
58242;SDS011;50118;53.232;8.252;2023-08-12T03:02:17;22.25;;;18.17;;
58242;SDS011;50118;53.232;8.252;2023-08-12T03:04:42;17.05;;;13.57;;
58242;SDS011;50118;53.232;8.252;2023-08-12T03:07:08;18.88;;;15.20;;
58242;SDS011;50118;53.232;8.252;2023-08-12T03:09:33;20.13;;;15.73;;
58242;SDS011;50118;53.232;8.252;2023-08-12T03:12:00;20.95;;;16.25;;
58242;SDS011;50118;53.232;8.252;2023-08-12T03:14:28;28.00;;;19.27;;
58242;SDS011;50118;53.232;8.252;2023-08-12T03:16:54;23.67;;;17.70;;
58242;SDS011;50118;53.232;8.252;2023-08-12T03:19:20;19.20;;;14.57;;
58242;SDS011;50118;53.232;8.252;2023-08-12T03:21:45;22.63;;;17.40;;
58242;SDS011;50118;53.232;8.252;2023-08-12T03:24:11;22.65;;;17.15;;
58242;SDS011;50118;53.232;8.252;2023-08-12T03:26:36;20.55;;;14.52;;
58242;SDS011;50118;53.232;8.252;2023-08-12T03:29:02;17.10;;;14.45;;
58242;SDS011;50118;53.232;8.252;2023-08-12T03:31:27;18.52;;;14.93;;
58242;SDS011;50118;53.232;8.252;2023-08-12T03:33:52;20.88;;;14.85;;
58242;SDS011;50118;53.232;8.252;2023-08-12T03:36:18;20.65;;;14.02;;
58242;SDS011;50118;53.232;8.252;2023-08-12T03:38:43;19.08;;;13.68;;
58242;SDS011;50118;53.232;8.252;2023-08-12T03:41:08;20.40;;;13.52;;
58242;SDS011;50118;53.232;8.252;2023-08-12T03:43:34;17.88;;;12.90;;
58242;SDS011;50118;53.232;8.252;2023-08-12T03:45:59;18.15;;;12.73;;
58242;SDS011;50118;53.232;8.252;2023-08-12T03:48:25;17.92;;;13.30;;
58242;SDS011;50118;53.232;8.252;2023-08-12T03:50:50;13.75;;;10.23;;
58242;SDS011;50118;53.232;8.252;2023-08-12T03:53:15;19.73;;;13.27;;
58242;SDS011;50118;53.232;8.252;2023-08-12T03:55:42;14.82;;;11.73;;
58242;SDS011;50118;53.232;8.252;2023-08-12T03:58:08;13.50;;;10.52;;
58242;SDS011;50118;53.232;8.252;2023-08-12T04:00:33;17.40;;;12.52;;
58242;SDS011;50118;53.232;8.252;2023-08-12T04:02:58;16.75;;;11.80;;
58242;SDS011;50118;53.232;8.252;2023-08-12T04:05:24;16.50;;;12.05;;
58242;SDS011;50118;53.232;8.252;2023-08-12T04:07:49;17.33;;;12.45;;
58242;SDS011;50118;53.232;8.252;2023-08-12T04:10:15;17.17;;;12.45;;
58242;SDS011;50118;53.232;8.252;2023-08-12T04:12:41;13.30;;;9.90;;
58242;SDS011;50118;53.232;8.252;2023-08-12T04:15:07;13.07;;;9.75;;
58242;SDS011;50118;53.232;8.252;2023-08-12T04:17:33;12.77;;;9.50;;
58242;SDS011;50118;53.232;8.252;2023-08-12T04:19:58;14.45;;;10.60;;
58242;SDS011;50118;53.232;8.252;2023-08-12T04:22:24;12.00;;;10.13;;
58242;SDS011;50118;53.232;8.252;2023-08-12T04:24:49;13.18;;;8.43;;
58242;SDS011;50118;53.232;8.252;2023-08-12T04:27:14;12.95;;;9.75;;
58242;SDS011;50118;53.232;8.252;2023-08-12T04:29:41;12.85;;;9.13;;
58242;SDS011;50118;53.232;8.252;2023-08-12T04:32:07;12.60;;;9.77;;
58242;SDS011;50118;53.232;8.252;2023-08-12T04:34:32;15.63;;;9.65;;
58242;SDS011;50118;53.232;8.252;2023-08-12T04:36:58;10.65;;;8.68;;
58242;SDS011;50118;53.232;8.252;2023-08-12T04:39:23;14.70;;;11.13;;
58242;SDS011;50118;53.232;8.252;2023-08-12T04:41:49;14.73;;;10.73;;
58242;SDS011;50118;53.232;8.252;2023-08-12T04:44:14;13.05;;;10.07;;
58242;SDS011;50118;53.232;8.252;2023-08-12T04:46:39;12.20;;;9.73;;
58242;SDS011;50118;53.232;8.252;2023-08-12T04:49:05;11.73;;;9.30;;
58242;SDS011;50118;53.232;8.252;2023-08-12T04:51:30;13.77;;;9.82;;
58242;SDS011;50118;53.232;8.252;2023-08-12T04:53:56;11.68;;;9.05;;
58242;SDS011;50118;53.232;8.252;2023-08-12T04:56:22;10.43;;;8.60;;
58242;SDS011;50118;53.232;8.252;2023-08-12T04:58:49;10.73;;;8.68;;
58242;SDS011;50118;53.232;8.252;2023-08-12T05:01:14;10.80;;;8.77;;
58242;SDS011;50118;53.232;8.252;2023-08-12T05:03:40;14.43;;;11.10;;
58242;SDS011;50118;53.232;8.252;2023-08-12T05:06:05;16.02;;;9.77;;
58242;SDS011;50118;53.232;8.252;2023-08-12T05:08:30;13.85;;;10.40;;
58242;SDS011;50118;53.232;8.252;2023-08-12T05:10:56;10.23;;;7.95;;
58242;SDS011;50118;53.232;8.252;2023-08-12T05:13:21;13.50;;;9.07;;
58242;SDS011;50118;53.232;8.252;2023-08-12T05:15:48;12.07;;;8.65;;
58242;SDS011;50118;53.232;8.252;2023-08-12T05:18:14;12.68;;;9.13;;
58242;SDS011;50118;53.232;8.252;2023-08-12T05:20:40;11.48;;;8.70;;
58242;SDS011;50118;53.232;8.252;2023-08-12T05:23:06;11.90;;;8.27;;
58242;SDS011;50118;53.232;8.252;2023-08-12T05:25:32;10.43;;;7.53;;
58242;SDS011;50118;53.232;8.252;2023-08-12T05:27:57;10.38;;;7.65;;
58242;SDS011;50118;53.232;8.252;2023-08-12T05:30:23;10.40;;;7.22;;
58242;SDS011;50118;53.232;8.252;2023-08-12T05:32:48;10.18;;;8.13;;
58242;SDS011;50118;53.232;8.252;2023-08-12T05:35:14;8.95;;;6.70;;
58242;SDS011;50118;53.232;8.252;2023-08-12T05:37:39;8.32;;;5.80;;
58242;SDS011;50118;53.232;8.252;2023-08-12T05:40:05;9.35;;;6.45;;
58242;SDS011;50118;53.232;8.252;2023-08-12T05:42:33;6.80;;;5.13;;
58242;SDS011;50118;53.232;8.252;2023-08-12T05:44:59;10.13;;;5.40;;
58242;SDS011;50118;53.232;8.252;2023-08-12T05:47:24;7.72;;;5.28;;
58242;SDS011;50118;53.232;8.252;2023-08-12T05:49:50;7.63;;;5.60;;
58242;SDS011;50118;53.232;8.252;2023-08-12T05:52:16;6.78;;;5.15;;
58242;SDS011;50118;53.232;8.252;2023-08-12T05:54:41;8.32;;;6.38;;
58242;SDS011;50118;53.232;8.252;2023-08-12T05:57:06;8.75;;;6.70;;
58242;SDS011;50118;53.232;8.252;2023-08-12T05:59:32;9.43;;;6.57;;
58242;SDS011;50118;53.232;8.252;2023-08-12T06:01:57;10.30;;;7.60;;
58242;SDS011;50118;53.232;8.252;2023-08-12T06:04:23;9.70;;;8.27;;
58242;SDS011;50118;53.232;8.252;2023-08-12T06:06:48;11.52;;;9.02;;
58242;SDS011;50118;53.232;8.252;2023-08-12T06:09:13;11.23;;;9.05;;
58242;SDS011;50118;53.232;8.252;2023-08-12T06:11:39;10.80;;;8.50;;
58242;SDS011;50118;53.232;8.252;2023-08-12T06:14:04;13.32;;;10.27;;
58242;SDS011;50118;53.232;8.252;2023-08-12T06:16:30;12.07;;;9.38;;
58242;SDS011;50118;53.232;8.252;2023-08-12T06:18:55;13.00;;;10.27;;
58242;SDS011;50118;53.232;8.252;2023-08-12T06:21:21;11.35;;;9.18;;
58242;SDS011;50118;53.232;8.252;2023-08-12T06:23:46;11.40;;;9.00;;
58242;SDS011;50118;53.232;8.252;2023-08-12T06:26:12;13.18;;;10.23;;
58242;SDS011;50118;53.232;8.252;2023-08-12T06:28:37;13.18;;;10.77;;
58242;SDS011;50118;53.232;8.252;2023-08-12T06:31:02;12.20;;;9.85;;
58242;SDS011;50118;53.232;8.252;2023-08-12T06:33:28;11.52;;;9.35;;
58242;SDS011;50118;53.232;8.252;2023-08-12T06:35:53;12.80;;;9.00;;
58242;SDS011;50118;53.232;8.252;2023-08-12T06:38:19;13.63;;;9.55;;
58242;SDS011;50118;53.232;8.252;2023-08-12T06:40:44;10.82;;;8.68;;
58242;SDS011;50118;53.232;8.252;2023-08-12T06:43:10;10.13;;;7.85;;
58242;SDS011;50118;53.232;8.252;2023-08-12T06:45:35;13.05;;;8.95;;
58242;SDS011;50118;53.232;8.252;2023-08-12T06:48:00;10.25;;;8.27;;
58242;SDS011;50118;53.232;8.252;2023-08-12T06:50:27;12.60;;;8.10;;
58242;SDS011;50118;53.232;8.252;2023-08-12T06:52:53;10.50;;;7.78;;
58242;SDS011;50118;53.232;8.252;2023-08-12T06:55:18;8.98;;;6.95;;
58242;SDS011;50118;53.232;8.252;2023-08-12T06:57:44;8.45;;;6.97;;
58242;SDS011;50118;53.232;8.252;2023-08-12T07:00:10;8.00;;;6.68;;
58242;SDS011;50118;53.232;8.252;2023-08-12T07:02:36;6.90;;;5.30;;
58242;SDS011;50118;53.232;8.252;2023-08-12T07:05:01;9.02;;;6.47;;
58242;SDS011;50118;53.232;8.252;2023-08-12T07:07:27;12.57;;;7.43;;
58242;SDS011;50118;53.232;8.252;2023-08-12T07:09:52;8.90;;;6.70;;
58242;SDS011;50118;53.232;8.252;2023-08-12T07:12:17;8.35;;;7.38;;
58242;SDS011;50118;53.232;8.252;2023-08-12T07:14:43;8.90;;;6.38;;
58242;SDS011;50118;53.232;8.252;2023-08-12T07:17:08;7.80;;;6.00;;
58242;SDS011;50118;53.232;8.252;2023-08-12T07:19:33;6.45;;;5.75;;
58242;SDS011;50118;53.232;8.252;2023-08-12T07:21:59;9.10;;;7.00;;
58242;SDS011;50118;53.232;8.252;2023-08-12T07:24:24;8.05;;;6.45;;
58242;SDS011;50118;53.232;8.252;2023-08-12T07:26:49;8.20;;;6.63;;
58242;SDS011;50118;53.232;8.252;2023-08-12T07:29:16;8.40;;;6.30;;
58242;SDS011;50118;53.232;8.252;2023-08-12T07:31:42;7.70;;;6.35;;
58242;SDS011;50118;53.232;8.252;2023-08-12T07:34:07;8.10;;;6.53;;
58242;SDS011;50118;53.232;8.252;2023-08-12T07:36:32;9.98;;;7.72;;
58242;SDS011;50118;53.232;8.252;2023-08-12T07:38:58;10.00;;;7.70;;
58242;SDS011;50118;53.232;8.252;2023-08-12T07:41:23;10.27;;;8.10;;
58242;SDS011;50118;53.232;8.252;2023-08-12T07:43:52;9.55;;;7.63;;
58242;SDS011;50118;53.232;8.252;2023-08-12T07:46:18;9.85;;;8.77;;
58242;SDS011;50118;53.232;8.252;2023-08-12T07:48:43;10.73;;;9.23;;
58242;SDS011;50118;53.232;8.252;2023-08-12T07:51:09;11.75;;;10.05;;
58242;SDS011;50118;53.232;8.252;2023-08-12T07:53:34;12.07;;;9.85;;
58242;SDS011;50118;53.232;8.252;2023-08-12T07:56:00;12.55;;;10.55;;
58242;SDS011;50118;53.232;8.252;2023-08-12T07:58:25;14.27;;;12.77;;
58242;SDS011;50118;53.232;8.252;2023-08-12T08:00:53;11.88;;;10.65;;
58242;SDS011;50118;53.232;8.252;2023-08-12T08:03:19;13.95;;;12.43;;
58242;SDS011;50118;53.232;8.252;2023-08-12T08:05:44;13.52;;;11.48;;
58242;SDS011;50118;53.232;8.252;2023-08-12T08:08:12;12.27;;;10.98;;
58242;SDS011;50118;53.232;8.252;2023-08-12T08:10:37;15.10;;;13.18;;
58242;SDS011;50118;53.232;8.252;2023-08-12T08:13:03;14.57;;;12.43;;
58242;SDS011;50118;53.232;8.252;2023-08-12T08:15:28;15.23;;;13.32;;
58242;SDS011;50118;53.232;8.252;2023-08-12T08:17:54;14.82;;;13.35;;
58242;SDS011;50118;53.232;8.252;2023-08-12T08:20:19;16.08;;;14.48;;
58242;SDS011;50118;53.232;8.252;2023-08-12T08:22:45;15.70;;;13.30;;
58242;SDS011;50118;53.232;8.252;2023-08-12T08:25:12;15.80;;;14.10;;
58242;SDS011;50118;53.232;8.252;2023-08-12T08:27:37;16.38;;;13.38;;
58242;SDS011;50118;53.232;8.252;2023-08-12T08:30:04;14.05;;;12.57;;
58242;SDS011;50118;53.232;8.252;2023-08-12T08:32:30;15.73;;;13.95;;
58242;SDS011;50118;53.232;8.252;2023-08-12T08:34:56;15.10;;;13.60;;
58242;SDS011;50118;53.232;8.252;2023-08-12T08:37:21;14.15;;;12.65;;
58242;SDS011;50118;53.232;8.252;2023-08-12T08:39:47;15.05;;;12.57;;
58242;SDS011;50118;53.232;8.252;2023-08-12T08:42:12;12.77;;;11.45;;
58242;SDS011;50118;53.232;8.252;2023-08-12T08:44:41;11.70;;;10.27;;
58242;SDS011;50118;53.232;8.252;2023-08-12T08:47:08;11.00;;;9.88;;
58242;SDS011;50118;53.232;8.252;2023-08-12T08:49:33;13.32;;;11.70;;
58242;SDS011;50118;53.232;8.252;2023-08-12T08:51:59;13.13;;;11.20;;
58242;SDS011;50118;53.232;8.252;2023-08-12T08:54:25;13.55;;;11.70;;
58242;SDS011;50118;53.232;8.252;2023-08-12T08:56:51;15.05;;;12.00;;
58242;SDS011;50118;53.232;8.252;2023-08-12T08:59:17;14.70;;;11.90;;
58242;SDS011;50118;53.232;8.252;2023-08-12T09:01:43;15.50;;;11.82;;
58242;SDS011;50118;53.232;8.252;2023-08-12T09:04:11;16.85;;;12.98;;
58242;SDS011;50118;53.232;8.252;2023-08-12T09:06:37;14.65;;;12.95;;
58242;SDS011;50118;53.232;8.252;2023-08-12T09:09:05;16.15;;;13.00;;
58242;SDS011;50118;53.232;8.252;2023-08-12T09:11:35;13.25;;;11.73;;
58242;SDS011;50118;53.232;8.252;2023-08-12T09:14:04;13.88;;;11.98;;
58242;SDS011;50118;53.232;8.252;2023-08-12T09:16:30;13.65;;;12.00;;
58242;SDS011;50118;53.232;8.252;2023-08-12T09:18:55;13.55;;;11.43;;
58242;SDS011;50118;53.232;8.252;2023-08-12T09:21:21;15.18;;;13.10;;
58242;SDS011;50118;53.232;8.252;2023-08-12T09:23:47;14.02;;;12.57;;
58242;SDS011;50118;53.232;8.252;2023-08-12T09:26:17;17.27;;;14.18;;
58242;SDS011;50118;53.232;8.252;2023-08-12T09:28:43;14.52;;;13.05;;
58242;SDS011;50118;53.232;8.252;2023-08-12T09:31:21;13.18;;;11.77;;
58242;SDS011;50118;53.232;8.252;2023-08-12T09:33:49;14.63;;;13.13;;
58242;SDS011;50118;53.232;8.252;2023-08-12T09:36:15;13.45;;;11.77;;
58242;SDS011;50118;53.232;8.252;2023-08-12T09:38:41;15.48;;;13.32;;
58242;SDS011;50118;53.232;8.252;2023-08-12T09:41:07;14.55;;;13.05;;
58242;SDS011;50118;53.232;8.252;2023-08-12T09:43:33;15.52;;;12.77;;
58242;SDS011;50118;53.232;8.252;2023-08-12T09:45:58;13.38;;;11.63;;
58242;SDS011;50118;53.232;8.252;2023-08-12T09:48:24;16.27;;;12.73;;
58242;SDS011;50118;53.232;8.252;2023-08-12T09:50:51;11.85;;;10.25;;
58242;SDS011;50118;53.232;8.252;2023-08-12T09:53:17;13.48;;;11.00;;
58242;SDS011;50118;53.232;8.252;2023-08-12T09:55:43;13.52;;;12.18;;
58242;SDS011;50118;53.232;8.252;2023-08-12T09:58:12;14.65;;;13.15;;
58242;SDS011;50118;53.232;8.252;2023-08-12T10:00:42;15.07;;;12.98;;
58242;SDS011;50118;53.232;8.252;2023-08-12T10:03:08;14.02;;;11.93;;
58242;SDS011;50118;53.232;8.252;2023-08-12T10:05:36;14.35;;;12.85;;
58242;SDS011;50118;53.232;8.252;2023-08-12T10:08:03;14.00;;;12.48;;
58242;SDS011;50118;53.232;8.252;2023-08-12T10:10:30;13.40;;;11.70;;
58242;SDS011;50118;53.232;8.252;2023-08-12T10:12:57;15.60;;;13.73;;
58242;SDS011;50118;53.232;8.252;2023-08-12T10:15:24;16.10;;;13.45;;
58242;SDS011;50118;53.232;8.252;2023-08-12T10:17:51;17.55;;;15.07;;
58242;SDS011;50118;53.232;8.252;2023-08-12T10:20:20;23.17;;;17.02;;
58242;SDS011;50118;53.232;8.252;2023-08-12T10:22:47;15.32;;;13.73;;
58242;SDS011;50118;53.232;8.252;2023-08-12T10:25:19;16.90;;;14.95;;
58242;SDS011;50118;53.232;8.252;2023-08-12T10:27:48;19.00;;;17.00;;
58242;SDS011;50118;53.232;8.252;2023-08-12T10:30:15;18.85;;;16.83;;
58242;SDS011;50118;53.232;8.252;2023-08-12T10:32:40;19.17;;;17.17;;
58242;SDS011;50118;53.232;8.252;2023-08-12T10:35:06;22.23;;;19.55;;
58242;SDS011;50118;53.232;8.252;2023-08-12T10:37:33;19.35;;;17.35;;
58242;SDS011;50118;53.232;8.252;2023-08-12T10:40:19;21.58;;;18.85;;
58242;SDS011;50118;53.232;8.252;2023-08-12T10:42:46;19.98;;;17.90;;
58242;SDS011;50118;53.232;8.252;2023-08-12T10:45:13;17.70;;;15.90;;
58242;SDS011;50118;53.232;8.252;2023-08-12T10:47:41;20.58;;;18.38;;
58242;SDS011;50118;53.232;8.252;2023-08-12T10:50:21;23.42;;;19.33;;
58242;SDS011;50118;53.232;8.252;2023-08-12T10:52:53;17.58;;;15.70;;
58242;SDS011;50118;53.232;8.252;2023-08-12T10:57:46;20.05;;;17.80;;
58242;SDS011;50118;53.232;8.252;2023-08-12T11:00:13;18.05;;;16.20;;
58242;SDS011;50118;53.232;8.252;2023-08-12T11:02:40;21.73;;;19.20;;
58242;SDS011;50118;53.232;8.252;2023-08-12T11:05:10;20.77;;;18.20;;
58242;SDS011;50118;53.232;8.252;2023-08-12T11:10:19;19.83;;;17.65;;
58242;SDS011;50118;53.232;8.252;2023-08-12T11:15:37;18.88;;;16.60;;
58242;SDS011;50118;53.232;8.252;2023-08-12T11:18:13;20.23;;;17.73;;
58242;SDS011;50118;53.232;8.252;2023-08-12T11:20:43;17.98;;;15.80;;
58242;SDS011;50118;53.232;8.252;2023-08-12T11:23:08;18.88;;;16.10;;
58242;SDS011;50118;53.232;8.252;2023-08-12T11:25:36;19.35;;;17.35;;
58242;SDS011;50118;53.232;8.252;2023-08-12T11:28:03;18.02;;;16.13;;
58242;SDS011;50118;53.232;8.252;2023-08-12T11:30:30;19.30;;;16.25;;
58242;SDS011;50118;53.232;8.252;2023-08-12T11:32:56;16.27;;;14.57;;
58242;SDS011;50118;53.232;8.252;2023-08-12T11:35:22;15.48;;;13.88;;
58242;SDS011;50118;53.232;8.252;2023-08-12T11:37:49;14.40;;;12.85;;
58242;SDS011;50118;53.232;8.252;2023-08-12T11:40:18;15.77;;;14.07;;
58242;SDS011;50118;53.232;8.252;2023-08-12T11:42:45;12.88;;;11.57;;
58242;SDS011;50118;53.232;8.252;2023-08-12T11:45:13;13.65;;;12.13;;
58242;SDS011;50118;53.232;8.252;2023-08-12T11:47:40;13.52;;;12.13;;
58242;SDS011;50118;53.232;8.252;2023-08-12T11:50:10;12.45;;;11.15;;
58242;SDS011;50118;53.232;8.252;2023-08-12T11:52:36;13.23;;;11.23;;
58242;SDS011;50118;53.232;8.252;2023-08-12T11:55:03;12.50;;;11.20;;
58242;SDS011;50118;53.232;8.252;2023-08-12T11:57:31;12.35;;;11.02;;
58242;SDS011;50118;53.232;8.252;2023-08-12T12:00:06;14.20;;;11.63;;
58242;SDS011;50118;53.232;8.252;2023-08-12T12:02:59;11.48;;;10.35;;
58242;SDS011;50118;53.232;8.252;2023-08-12T12:05:28;13.23;;;11.05;;
58242;SDS011;50118;53.232;8.252;2023-08-12T12:07:58;11.80;;;10.57;;
58242;SDS011;50118;53.232;8.252;2023-08-12T12:10:28;11.90;;;10.23;;
58242;SDS011;50118;53.232;8.252;2023-08-12T12:12:55;13.65;;;11.00;;
58242;SDS011;50118;53.232;8.252;2023-08-12T12:15:21;10.82;;;9.73;;
58242;SDS011;50118;53.232;8.252;2023-08-12T12:17:47;13.10;;;10.63;;
58242;SDS011;50118;53.232;8.252;2023-08-12T12:20:14;11.93;;;10.73;;
58242;SDS011;50118;53.232;8.252;2023-08-12T12:22:41;11.95;;;10.40;;
58242;SDS011;50118;53.232;8.252;2023-08-12T12:25:14;12.90;;;11.50;;
58242;SDS011;50118;53.232;8.252;2023-08-12T12:27:41;11.18;;;9.45;;
58242;SDS011;50118;53.232;8.252;2023-08-12T12:30:08;11.13;;;10.02;;
58242;SDS011;50118;53.232;8.252;2023-08-12T12:32:35;9.23;;;8.25;;
58242;SDS011;50118;53.232;8.252;2023-08-12T12:35:00;10.52;;;9.38;;
58242;SDS011;50118;53.232;8.252;2023-08-12T12:37:26;10.75;;;9.60;;
58242;SDS011;50118;53.232;8.252;2023-08-12T12:39:52;10.32;;;9.23;;
58242;SDS011;50118;53.232;8.252;2023-08-12T12:42:17;11.48;;;10.27;;
58242;SDS011;50118;53.232;8.252;2023-08-12T12:44:43;11.27;;;10.00;;
58242;SDS011;50118;53.232;8.252;2023-08-12T12:47:08;10.93;;;9.82;;
58242;SDS011;50118;53.232;8.252;2023-08-12T12:49:35;10.35;;;9.25;;
58242;SDS011;50118;53.232;8.252;2023-08-12T12:52:01;10.35;;;9.35;;
58242;SDS011;50118;53.232;8.252;2023-08-12T12:54:26;9.70;;;8.77;;
58242;SDS011;50118;53.232;8.252;2023-08-12T12:56:52;8.88;;;7.95;;
58242;SDS011;50118;53.232;8.252;2023-08-12T12:59:17;9.50;;;8.50;;
58242;SDS011;50118;53.232;8.252;2023-08-12T13:01:43;9.48;;;8.48;;
58242;SDS011;50118;53.232;8.252;2023-08-12T13:04:08;9.68;;;8.68;;
58242;SDS011;50118;53.232;8.252;2023-08-12T13:06:34;9.75;;;8.75;;
58242;SDS011;50118;53.232;8.252;2023-08-12T13:09:00;8.30;;;7.50;;
58242;SDS011;50118;53.232;8.252;2023-08-12T13:11:26;8.30;;;7.05;;
58242;SDS011;50118;53.232;8.252;2023-08-12T13:13:51;7.82;;;7.03;;
58242;SDS011;50118;53.232;8.252;2023-08-12T13:16:17;6.63;;;6.03;;
58242;SDS011;50118;53.232;8.252;2023-08-12T13:18:42;6.78;;;6.18;;
58242;SDS011;50118;53.232;8.252;2023-08-12T13:21:08;7.38;;;6.68;;
58242;SDS011;50118;53.232;8.252;2023-08-12T13:23:34;7.55;;;6.75;;
58242;SDS011;50118;53.232;8.252;2023-08-12T13:25:59;7.55;;;6.75;;
58242;SDS011;50118;53.232;8.252;2023-08-12T13:28:25;8.98;;;7.80;;
58242;SDS011;50118;53.232;8.252;2023-08-12T13:30:50;5.20;;;4.70;;
58242;SDS011;50118;53.232;8.252;2023-08-12T13:33:16;2.15;;;1.42;;
58242;SDS011;50118;53.232;8.252;2023-08-12T13:35:41;1.52;;;1.00;;
58242;SDS011;50118;53.232;8.252;2023-08-12T13:38:06;1.25;;;0.90;;
58242;SDS011;50118;53.232;8.252;2023-08-12T13:40:32;0.90;;;0.90;;
58242;SDS011;50118;53.232;8.252;2023-08-12T13:42:57;1.38;;;1.00;;
58242;SDS011;50118;53.232;8.252;2023-08-12T13:45:23;1.15;;;1.05;;
58242;SDS011;50118;53.232;8.252;2023-08-12T13:47:49;1.48;;;1.00;;
58242;SDS011;50118;53.232;8.252;2023-08-12T13:50:15;0.88;;;0.70;;
58242;SDS011;50118;53.232;8.252;2023-08-12T13:52:40;1.27;;;0.95;;
58242;SDS011;50118;53.232;8.252;2023-08-12T13:55:06;1.17;;;0.90;;
58242;SDS011;50118;53.232;8.252;2023-08-12T13:57:32;2.28;;;1.10;;
58242;SDS011;50118;53.232;8.252;2023-08-12T13:59:57;1.48;;;1.10;;
58242;SDS011;50118;53.232;8.252;2023-08-12T14:02:24;1.58;;;1.20;;
58242;SDS011;50118;53.232;8.252;2023-08-12T14:04:49;1.83;;;1.40;;
58242;SDS011;50118;53.232;8.252;2023-08-12T14:07:15;3.03;;;1.60;;
58242;SDS011;50118;53.232;8.252;2023-08-12T14:09:41;2.05;;;1.50;;
58242;SDS011;50118;53.232;8.252;2023-08-12T14:12:07;1.80;;;1.50;;
58242;SDS011;50118;53.232;8.252;2023-08-12T14:14:32;2.47;;;1.60;;
58242;SDS011;50118;53.232;8.252;2023-08-12T14:16:58;2.13;;;1.70;;
58242;SDS011;50118;53.232;8.252;2023-08-12T14:19:23;1.73;;;1.50;;
58242;SDS011;50118;53.232;8.252;2023-08-12T14:21:49;3.10;;;2.10;;
58242;SDS011;50118;53.232;8.252;2023-08-12T14:24:14;3.13;;;1.70;;
58242;SDS011;50118;53.232;8.252;2023-08-12T14:26:39;3.53;;;1.52;;
58242;SDS011;50118;53.232;8.252;2023-08-12T14:29:05;2.10;;;1.50;;
58242;SDS011;50118;53.232;8.252;2023-08-12T14:31:31;2.03;;;1.50;;
58242;SDS011;50118;53.232;8.252;2023-08-12T14:33:57;3.03;;;1.60;;
58242;SDS011;50118;53.232;8.252;2023-08-12T14:36:23;2.08;;;1.50;;
58242;SDS011;50118;53.232;8.252;2023-08-12T14:38:49;2.92;;;1.60;;